sensor_id;sensor_type;location;lat;lon;timestamp;P1;durP1;ratioP1;P2;durP2;ratioP2
16320;SDS011;8269;50.990;4.494;2023-05-29T00:00:50;16.77;;;9.35;;
16320;SDS011;8269;50.990;4.494;2023-05-29T00:03:17;15.32;;;9.68;;
16320;SDS011;8269;50.990;4.494;2023-05-29T00:05:42;14.57;;;9.07;;
16320;SDS011;8269;50.990;4.494;2023-05-29T00:08:08;17.70;;;8.55;;
16320;SDS011;8269;50.990;4.494;2023-05-29T00:10:33;14.23;;;8.55;;
16320;SDS011;8269;50.990;4.494;2023-05-29T00:13:00;13.93;;;8.57;;
16320;SDS011;8269;50.990;4.494;2023-05-29T00:15:26;14.18;;;9.02;;
16320;SDS011;8269;50.990;4.494;2023-05-29T00:17:52;14.30;;;9.13;;
16320;SDS011;8269;50.990;4.494;2023-05-29T00:20:18;13.30;;;8.68;;
16320;SDS011;8269;50.990;4.494;2023-05-29T00:22:43;14.18;;;8.73;;
16320;SDS011;8269;50.990;4.494;2023-05-29T00:25:09;14.68;;;9.35;;
16320;SDS011;8269;50.990;4.494;2023-05-29T00:27:35;12.98;;;8.88;;
16320;SDS011;8269;50.990;4.494;2023-05-29T00:30:01;15.02;;;8.95;;
16320;SDS011;8269;50.990;4.494;2023-05-29T00:32:27;16.23;;;8.60;;
16320;SDS011;8269;50.990;4.494;2023-05-29T00:34:53;16.08;;;8.75;;
16320;SDS011;8269;50.990;4.494;2023-05-29T00:37:20;14.55;;;8.20;;
16320;SDS011;8269;50.990;4.494;2023-05-29T00:39:46;13.48;;;7.68;;
16320;SDS011;8269;50.990;4.494;2023-05-29T00:42:15;16.38;;;8.70;;
16320;SDS011;8269;50.990;4.494;2023-05-29T00:44:40;13.85;;;8.57;;
16320;SDS011;8269;50.990;4.494;2023-05-29T00:47:06;17.00;;;9.13;;
16320;SDS011;8269;50.990;4.494;2023-05-29T00:49:32;14.98;;;8.35;;
16320;SDS011;8269;50.990;4.494;2023-05-29T00:52:00;15.00;;;8.65;;
16320;SDS011;8269;50.990;4.494;2023-05-29T00:54:28;14.77;;;8.30;;
16320;SDS011;8269;50.990;4.494;2023-05-29T00:56:58;16.15;;;8.90;;
16320;SDS011;8269;50.990;4.494;2023-05-29T00:59:25;13.85;;;8.93;;
16320;SDS011;8269;50.990;4.494;2023-05-29T01:01:54;14.95;;;8.85;;
16320;SDS011;8269;50.990;4.494;2023-05-29T01:04:21;15.52;;;8.70;;
16320;SDS011;8269;50.990;4.494;2023-05-29T01:06:48;12.25;;;7.90;;
16320;SDS011;8269;50.990;4.494;2023-05-29T01:09:14;13.15;;;8.18;;
16320;SDS011;8269;50.990;4.494;2023-05-29T01:20:23;11.88;;;7.00;;
16320;SDS011;8269;50.990;4.494;2023-05-29T01:26:11;13.38;;;8.38;;
16320;SDS011;8269;50.990;4.494;2023-05-29T01:28:57;13.80;;;8.52;;
16320;SDS011;8269;50.990;4.494;2023-05-29T01:31:25;17.97;;;7.73;;
16320;SDS011;8269;50.990;4.494;2023-05-29T01:33:56;14.70;;;8.13;;
16320;SDS011;8269;50.990;4.494;2023-05-29T01:36:23;14.80;;;8.45;;
16320;SDS011;8269;50.990;4.494;2023-05-29T01:38:50;12.48;;;6.68;;
16320;SDS011;8269;50.990;4.494;2023-05-29T01:41:18;17.20;;;8.60;;
16320;SDS011;8269;50.990;4.494;2023-05-29T01:43:46;16.00;;;7.78;;
16320;SDS011;8269;50.990;4.494;2023-05-29T01:46:12;15.85;;;7.93;;
16320;SDS011;8269;50.990;4.494;2023-05-29T01:48:40;13.45;;;8.10;;
16320;SDS011;8269;50.990;4.494;2023-05-29T01:51:09;13.00;;;7.82;;
16320;SDS011;8269;50.990;4.494;2023-05-29T01:53:36;13.17;;;7.53;;
16320;SDS011;8269;50.990;4.494;2023-05-29T01:56:02;13.53;;;7.40;;
16320;SDS011;8269;50.990;4.494;2023-05-29T01:58:29;16.38;;;7.43;;
16320;SDS011;8269;50.990;4.494;2023-05-29T02:00:57;16.73;;;6.80;;
16320;SDS011;8269;50.990;4.494;2023-05-29T02:03:23;15.53;;;7.00;;
16320;SDS011;8269;50.990;4.494;2023-05-29T02:05:48;14.47;;;7.37;;
16320;SDS011;8269;50.990;4.494;2023-05-29T02:08:14;13.37;;;6.47;;
16320;SDS011;8269;50.990;4.494;2023-05-29T02:10:40;16.05;;;6.50;;
16320;SDS011;8269;50.990;4.494;2023-05-29T02:13:06;17.70;;;7.27;;
16320;SDS011;8269;50.990;4.494;2023-05-29T02:15:32;13.52;;;6.63;;
16320;SDS011;8269;50.990;4.494;2023-05-29T02:17:58;16.17;;;6.80;;
16320;SDS011;8269;50.990;4.494;2023-05-29T02:20:26;11.23;;;6.43;;
16320;SDS011;8269;50.990;4.494;2023-05-29T02:22:52;11.53;;;5.73;;
16320;SDS011;8269;50.990;4.494;2023-05-29T02:25:17;13.77;;;6.20;;
16320;SDS011;8269;50.990;4.494;2023-05-29T02:27:43;12.73;;;5.43;;
16320;SDS011;8269;50.990;4.494;2023-05-29T02:30:09;17.50;;;5.80;;
16320;SDS011;8269;50.990;4.494;2023-05-29T02:32:35;16.03;;;4.70;;
16320;SDS011;8269;50.990;4.494;2023-05-29T02:35:01;9.67;;;5.10;;
16320;SDS011;8269;50.990;4.494;2023-05-29T02:37:27;11.43;;;5.90;;
16320;SDS011;8269;50.990;4.494;2023-05-29T02:39:53;13.00;;;4.77;;
16320;SDS011;8269;50.990;4.494;2023-05-29T02:42:18;15.00;;;4.87;;
16320;SDS011;8269;50.990;4.494;2023-05-29T02:44:44;11.80;;;4.30;;
16320;SDS011;8269;50.990;4.494;2023-05-29T02:47:10;11.97;;;4.70;;
16320;SDS011;8269;50.990;4.494;2023-05-29T02:49:35;13.67;;;4.50;;
16320;SDS011;8269;50.990;4.494;2023-05-29T02:52:01;9.57;;;4.60;;
16320;SDS011;8269;50.990;4.494;2023-05-29T02:54:26;13.70;;;4.23;;
16320;SDS011;8269;50.990;4.494;2023-05-29T02:56:52;12.60;;;4.80;;
16320;SDS011;8269;50.990;4.494;2023-05-29T02:59:18;11.60;;;4.03;;
16320;SDS011;8269;50.990;4.494;2023-05-29T03:01:44;16.40;;;4.70;;
16320;SDS011;8269;50.990;4.494;2023-05-29T03:04:10;11.00;;;4.30;;
16320;SDS011;8269;50.990;4.494;2023-05-29T03:06:36;11.33;;;4.57;;
16320;SDS011;8269;50.990;4.494;2023-05-29T03:09:02;14.13;;;4.80;;
16320;SDS011;8269;50.990;4.494;2023-05-29T03:11:30;11.13;;;4.37;;
16320;SDS011;8269;50.990;4.494;2023-05-29T03:13:56;15.80;;;4.17;;
16320;SDS011;8269;50.990;4.494;2023-05-29T03:16:22;13.70;;;4.03;;
16320;SDS011;8269;50.990;4.494;2023-05-29T03:18:47;13.80;;;4.13;;
16320;SDS011;8269;50.990;4.494;2023-05-29T03:21:13;11.53;;;4.17;;
16320;SDS011;8269;50.990;4.494;2023-05-29T03:23:39;15.90;;;3.87;;
16320;SDS011;8269;50.990;4.494;2023-05-29T03:26:04;11.90;;;3.60;;
16320;SDS011;8269;50.990;4.494;2023-05-29T03:28:30;13.73;;;3.67;;
16320;SDS011;8269;50.990;4.494;2023-05-29T03:30:56;12.70;;;3.80;;
16320;SDS011;8269;50.990;4.494;2023-05-29T03:33:22;11.13;;;3.33;;
16320;SDS011;8269;50.990;4.494;2023-05-29T03:35:48;10.90;;;3.57;;
16320;SDS011;8269;50.990;4.494;2023-05-29T03:38:14;9.70;;;3.77;;
16320;SDS011;8269;50.990;4.494;2023-05-29T03:40:41;13.10;;;3.73;;
16320;SDS011;8269;50.990;4.494;2023-05-29T03:43:06;12.50;;;4.10;;
16320;SDS011;8269;50.990;4.494;2023-05-29T03:45:32;13.73;;;3.50;;
16320;SDS011;8269;50.990;4.494;2023-05-29T03:47:57;12.17;;;3.73;;
16320;SDS011;8269;50.990;4.494;2023-05-29T03:50:23;8.87;;;3.30;;
16320;SDS011;8269;50.990;4.494;2023-05-29T03:52:48;10.93;;;3.27;;
16320;SDS011;8269;50.990;4.494;2023-05-29T03:55:14;10.23;;;3.30;;
16320;SDS011;8269;50.990;4.494;2023-05-29T03:57:40;13.03;;;3.90;;
16320;SDS011;8269;50.990;4.494;2023-05-29T04:00:09;10.83;;;3.53;;
16320;SDS011;8269;50.990;4.494;2023-05-29T04:02:40;11.67;;;3.50;;
16320;SDS011;8269;50.990;4.494;2023-05-29T04:05:06;13.87;;;3.53;;
16320;SDS011;8269;50.990;4.494;2023-05-29T04:07:33;11.83;;;3.30;;
16320;SDS011;8269;50.990;4.494;2023-05-29T04:10:01;12.80;;;3.70;;
16320;SDS011;8269;50.990;4.494;2023-05-29T04:12:27;11.33;;;3.60;;
16320;SDS011;8269;50.990;4.494;2023-05-29T04:14:53;11.13;;;3.00;;
16320;SDS011;8269;50.990;4.494;2023-05-29T04:17:18;11.93;;;3.50;;
16320;SDS011;8269;50.990;4.494;2023-05-29T04:19:44;10.37;;;3.23;;
16320;SDS011;8269;50.990;4.494;2023-05-29T04:22:10;7.73;;;2.83;;
16320;SDS011;8269;50.990;4.494;2023-05-29T04:24:35;11.87;;;3.57;;
16320;SDS011;8269;50.990;4.494;2023-05-29T04:27:02;14.32;;;3.67;;
16320;SDS011;8269;50.990;4.494;2023-05-29T04:29:29;11.87;;;3.37;;
16320;SDS011;8269;50.990;4.494;2023-05-29T04:31:55;14.85;;;3.72;;
16320;SDS011;8269;50.990;4.494;2023-05-29T04:34:21;13.50;;;3.65;;
16320;SDS011;8269;50.990;4.494;2023-05-29T04:36:48;8.80;;;2.93;;
16320;SDS011;8269;50.990;4.494;2023-05-29T04:39:14;9.02;;;3.05;;
16320;SDS011;8269;50.990;4.494;2023-05-29T04:41:40;11.65;;;3.35;;
16320;SDS011;8269;50.990;4.494;2023-05-29T04:44:06;14.37;;;3.33;;
16320;SDS011;8269;50.990;4.494;2023-05-29T04:46:34;11.07;;;3.08;;
16320;SDS011;8269;50.990;4.494;2023-05-29T04:49:00;10.20;;;3.33;;
16320;SDS011;8269;50.990;4.494;2023-05-29T04:51:27;12.25;;;3.38;;
16320;SDS011;8269;50.990;4.494;2023-05-29T04:53:54;11.23;;;3.10;;
16320;SDS011;8269;50.990;4.494;2023-05-29T04:56:21;9.75;;;3.28;;
16320;SDS011;8269;50.990;4.494;2023-05-29T04:58:48;12.68;;;3.13;;
16320;SDS011;8269;50.990;4.494;2023-05-29T05:01:15;11.80;;;3.40;;
16320;SDS011;8269;50.990;4.494;2023-05-29T05:03:43;13.43;;;3.10;;
16320;SDS011;8269;50.990;4.494;2023-05-29T05:06:10;8.90;;;2.60;;
16320;SDS011;8269;50.990;4.494;2023-05-29T05:08:37;9.93;;;3.50;;
16320;SDS011;8269;50.990;4.494;2023-05-29T05:11:03;10.90;;;3.03;;
16320;SDS011;8269;50.990;4.494;2023-05-29T05:13:29;11.32;;;3.10;;
16320;SDS011;8269;50.990;4.494;2023-05-29T05:15:55;10.10;;;2.95;;
16320;SDS011;8269;50.990;4.494;2023-05-29T05:18:20;12.68;;;3.03;;
16320;SDS011;8269;50.990;4.494;2023-05-29T05:20:46;10.85;;;3.13;;
16320;SDS011;8269;50.990;4.494;2023-05-29T05:23:12;11.98;;;2.97;;
16320;SDS011;8269;50.990;4.494;2023-05-29T05:25:37;13.32;;;3.80;;
16320;SDS011;8269;50.990;4.494;2023-05-29T05:28:04;12.07;;;3.13;;
16320;SDS011;8269;50.990;4.494;2023-05-29T05:30:30;12.20;;;2.92;;
16320;SDS011;8269;50.990;4.494;2023-05-29T05:32:56;14.75;;;3.50;;
16320;SDS011;8269;50.990;4.494;2023-05-29T05:35:22;13.05;;;2.80;;
16320;SDS011;8269;50.990;4.494;2023-05-29T05:37:48;12.18;;;3.17;;
16320;SDS011;8269;50.990;4.494;2023-05-29T05:40:14;13.70;;;3.28;;
16320;SDS011;8269;50.990;4.494;2023-05-29T05:42:40;15.38;;;3.80;;
16320;SDS011;8269;50.990;4.494;2023-05-29T05:45:06;11.43;;;3.10;;
16320;SDS011;8269;50.990;4.494;2023-05-29T05:47:32;10.25;;;2.78;;
16320;SDS011;8269;50.990;4.494;2023-05-29T05:49:58;12.48;;;3.30;;
16320;SDS011;8269;50.990;4.494;2023-05-29T05:52:24;12.50;;;2.97;;
16320;SDS011;8269;50.990;4.494;2023-05-29T05:54:50;12.65;;;3.13;;
16320;SDS011;8269;50.990;4.494;2023-05-29T05:57:16;11.75;;;3.20;;
16320;SDS011;8269;50.990;4.494;2023-05-29T05:59:42;13.63;;;3.13;;
16320;SDS011;8269;50.990;4.494;2023-05-29T06:02:09;11.73;;;3.55;;
16320;SDS011;8269;50.990;4.494;2023-05-29T06:04:35;12.55;;;2.63;;
16320;SDS011;8269;50.990;4.494;2023-05-29T06:07:00;11.10;;;3.25;;
16320;SDS011;8269;50.990;4.494;2023-05-29T06:09:27;11.73;;;3.03;;
16320;SDS011;8269;50.990;4.494;2023-05-29T06:11:54;10.48;;;3.20;;
16320;SDS011;8269;50.990;4.494;2023-05-29T06:14:20;14.57;;;3.40;;
16320;SDS011;8269;50.990;4.494;2023-05-29T06:16:45;13.90;;;3.03;;
16320;SDS011;8269;50.990;4.494;2023-05-29T06:19:11;14.15;;;3.78;;
16320;SDS011;8269;50.990;4.494;2023-05-29T06:21:37;10.18;;;3.00;;
16320;SDS011;8269;50.990;4.494;2023-05-29T06:24:03;10.52;;;3.05;;
16320;SDS011;8269;50.990;4.494;2023-05-29T06:26:28;6.80;;;2.60;;
16320;SDS011;8269;50.990;4.494;2023-05-29T06:28:54;13.15;;;3.30;;
16320;SDS011;8269;50.990;4.494;2023-05-29T06:31:20;9.98;;;3.05;;
16320;SDS011;8269;50.990;4.494;2023-05-29T06:33:46;13.35;;;3.25;;
16320;SDS011;8269;50.990;4.494;2023-05-29T06:36:12;9.93;;;2.60;;
16320;SDS011;8269;50.990;4.494;2023-05-29T06:38:38;13.65;;;3.15;;
16320;SDS011;8269;50.990;4.494;2023-05-29T06:41:10;9.20;;;2.72;;
16320;SDS011;8269;50.990;4.494;2023-05-29T06:43:35;13.20;;;3.05;;
16320;SDS011;8269;50.990;4.494;2023-05-29T06:46:01;11.07;;;2.97;;
16320;SDS011;8269;50.990;4.494;2023-05-29T06:48:27;10.80;;;2.90;;
16320;SDS011;8269;50.990;4.494;2023-05-29T06:50:52;10.60;;;3.00;;
16320;SDS011;8269;50.990;4.494;2023-05-29T06:53:18;12.82;;;3.40;;
16320;SDS011;8269;50.990;4.494;2023-05-29T06:55:43;11.93;;;2.92;;
16320;SDS011;8269;50.990;4.494;2023-05-29T06:58:09;10.80;;;3.00;;
16320;SDS011;8269;50.990;4.494;2023-05-29T07:03:31;11.45;;;2.83;;
16320;SDS011;8269;50.990;4.494;2023-05-29T07:05:56;9.13;;;2.67;;
16320;SDS011;8269;50.990;4.494;2023-05-29T07:08:22;9.75;;;2.80;;
16320;SDS011;8269;50.990;4.494;2023-05-29T07:10:49;10.18;;;2.70;;
16320;SDS011;8269;50.990;4.494;2023-05-29T07:13:16;10.90;;;3.38;;
16320;SDS011;8269;50.990;4.494;2023-05-29T07:15:42;10.80;;;2.60;;
16320;SDS011;8269;50.990;4.494;2023-05-29T07:18:13;12.73;;;2.95;;
16320;SDS011;8269;50.990;4.494;2023-05-29T07:20:38;10.82;;;2.70;;
16320;SDS011;8269;50.990;4.494;2023-05-29T07:23:04;11.18;;;2.80;;
16320;SDS011;8269;50.990;4.494;2023-05-29T07:25:30;13.13;;;3.85;;
16320;SDS011;8269;50.990;4.494;2023-05-29T07:27:56;13.50;;;2.97;;
16320;SDS011;8269;50.990;4.494;2023-05-29T07:30:22;10.15;;;3.05;;
16320;SDS011;8269;50.990;4.494;2023-05-29T07:32:48;11.13;;;2.83;;
16320;SDS011;8269;50.990;4.494;2023-05-29T07:35:14;10.48;;;3.08;;
16320;SDS011;8269;50.990;4.494;2023-05-29T07:37:39;9.90;;;2.72;;
16320;SDS011;8269;50.990;4.494;2023-05-29T07:40:05;11.80;;;3.28;;
16320;SDS011;8269;50.990;4.494;2023-05-29T07:42:31;11.13;;;2.72;;
16320;SDS011;8269;50.990;4.494;2023-05-29T07:44:57;7.60;;;2.72;;
16320;SDS011;8269;50.990;4.494;2023-05-29T07:47:24;10.02;;;2.90;;
16320;SDS011;8269;50.990;4.494;2023-05-29T07:49:49;11.63;;;3.38;;
16320;SDS011;8269;50.990;4.494;2023-05-29T07:52:16;9.23;;;3.03;;
16320;SDS011;8269;50.990;4.494;2023-05-29T07:54:42;12.10;;;2.90;;
16320;SDS011;8269;50.990;4.494;2023-05-29T07:57:08;10.25;;;3.30;;
16320;SDS011;8269;50.990;4.494;2023-05-29T07:59:37;9.77;;;2.92;;
16320;SDS011;8269;50.990;4.494;2023-05-29T08:02:05;10.23;;;3.05;;
16320;SDS011;8269;50.990;4.494;2023-05-29T08:04:31;10.32;;;3.20;;
16320;SDS011;8269;50.990;4.494;2023-05-29T08:07:01;10.77;;;3.00;;
16320;SDS011;8269;50.990;4.494;2023-05-29T08:09:28;9.73;;;3.00;;
16320;SDS011;8269;50.990;4.494;2023-05-29T08:11:55;11.30;;;3.22;;
16320;SDS011;8269;50.990;4.494;2023-05-29T08:14:20;9.98;;;3.22;;
16320;SDS011;8269;50.990;4.494;2023-05-29T08:16:46;11.73;;;2.70;;
16320;SDS011;8269;50.990;4.494;2023-05-29T08:19:12;10.15;;;2.92;;
16320;SDS011;8269;50.990;4.494;2023-05-29T08:21:38;14.60;;;3.38;;
16320;SDS011;8269;50.990;4.494;2023-05-29T08:24:04;13.52;;;3.40;;
16320;SDS011;8269;50.990;4.494;2023-05-29T08:26:30;9.05;;;2.88;;
16320;SDS011;8269;50.990;4.494;2023-05-29T08:28:56;12.35;;;2.97;;
16320;SDS011;8269;50.990;4.494;2023-05-29T08:31:22;9.90;;;3.00;;
16320;SDS011;8269;50.990;4.494;2023-05-29T08:33:52;10.00;;;2.83;;
16320;SDS011;8269;50.990;4.494;2023-05-29T08:36:19;12.18;;;3.50;;
16320;SDS011;8269;50.990;4.494;2023-05-29T08:38:47;8.85;;;2.75;;
16320;SDS011;8269;50.990;4.494;2023-05-29T08:41:16;12.40;;;3.35;;
16320;SDS011;8269;50.990;4.494;2023-05-29T08:43:47;9.43;;;3.22;;
16320;SDS011;8269;50.990;4.494;2023-05-29T08:46:15;10.52;;;2.92;;
16320;SDS011;8269;50.990;4.494;2023-05-29T08:48:43;11.85;;;3.67;;
16320;SDS011;8269;50.990;4.494;2023-05-29T08:51:14;10.60;;;3.05;;
16320;SDS011;8269;50.990;4.494;2023-05-29T08:53:46;13.48;;;3.30;;
16320;SDS011;8269;50.990;4.494;2023-05-29T08:56:12;12.77;;;3.35;;
16320;SDS011;8269;50.990;4.494;2023-05-29T08:58:38;12.30;;;3.50;;
16320;SDS011;8269;50.990;4.494;2023-05-29T09:01:04;10.77;;;3.15;;
16320;SDS011;8269;50.990;4.494;2023-05-29T09:03:30;11.57;;;3.10;;
16320;SDS011;8269;50.990;4.494;2023-05-29T09:06:00;11.18;;;3.80;;
16320;SDS011;8269;50.990;4.494;2023-05-29T09:08:28;10.82;;;2.80;;
16320;SDS011;8269;50.990;4.494;2023-05-29T09:10:54;8.98;;;3.30;;
16320;SDS011;8269;50.990;4.494;2023-05-29T09:13:20;15.25;;;3.35;;
16320;SDS011;8269;50.990;4.494;2023-05-29T09:15:46;13.52;;;3.13;;
16320;SDS011;8269;50.990;4.494;2023-05-29T09:18:11;9.27;;;2.95;;
16320;SDS011;8269;50.990;4.494;2023-05-29T09:20:37;10.15;;;3.30;;
16320;SDS011;8269;50.990;4.494;2023-05-29T09:23:04;13.05;;;3.58;;
16320;SDS011;8269;50.990;4.494;2023-05-29T09:25:31;9.93;;;3.17;;
16320;SDS011;8269;50.990;4.494;2023-05-29T09:28:04;13.20;;;3.25;;
16320;SDS011;8269;50.990;4.494;2023-05-29T09:33:08;12.98;;;2.83;;
16320;SDS011;8269;50.990;4.494;2023-05-29T09:35:44;11.18;;;2.92;;
16320;SDS011;8269;50.990;4.494;2023-05-29T09:38:13;14.23;;;3.63;;
16320;SDS011;8269;50.990;4.494;2023-05-29T09:40:41;9.32;;;3.20;;
16320;SDS011;8269;50.990;4.494;2023-05-29T09:45:43;12.63;;;3.70;;
16320;SDS011;8269;50.990;4.494;2023-05-29T09:48:22;13.93;;;3.88;;
16320;SDS011;8269;50.990;4.494;2023-05-29T09:50:48;8.80;;;2.90;;
16320;SDS011;8269;50.990;4.494;2023-05-29T09:53:21;11.30;;;3.30;;
16320;SDS011;8269;50.990;4.494;2023-05-29T09:55:50;11.20;;;3.30;;
16320;SDS011;8269;50.990;4.494;2023-05-29T09:58:22;10.45;;;2.90;;
16320;SDS011;8269;50.990;4.494;2023-05-29T10:00:49;15.75;;;2.85;;
16320;SDS011;8269;50.990;4.494;2023-05-29T10:03:16;11.48;;;2.85;;
16320;SDS011;8269;50.990;4.494;2023-05-29T10:05:44;9.38;;;2.63;;
16320;SDS011;8269;50.990;4.494;2023-05-29T10:08:14;10.35;;;2.75;;
16320;SDS011;8269;50.990;4.494;2023-05-29T10:10:45;9.70;;;2.85;;
16320;SDS011;8269;50.990;4.494;2023-05-29T10:13:14;11.43;;;3.17;;
16320;SDS011;8269;50.990;4.494;2023-05-29T10:15:43;10.25;;;3.03;;
16320;SDS011;8269;50.990;4.494;2023-05-29T10:18:55;8.10;;;2.63;;
16320;SDS011;8269;50.990;4.494;2023-05-29T10:20:57;8.38;;;3.42;;
16320;SDS011;8269;50.990;4.494;2023-05-29T10:23:25;8.93;;;2.58;;
16320;SDS011;8269;50.990;4.494;2023-05-29T10:25:53;10.20;;;2.97;;
16320;SDS011;8269;50.990;4.494;2023-05-29T10:28:22;8.60;;;2.75;;
16320;SDS011;8269;50.990;4.494;2023-05-29T10:33:20;9.77;;;3.28;;
16320;SDS011;8269;50.990;4.494;2023-05-29T10:36:14;10.73;;;2.80;;
16320;SDS011;8269;50.990;4.494;2023-05-29T10:38:41;9.32;;;2.70;;
16320;SDS011;8269;50.990;4.494;2023-05-29T10:43:54;9.55;;;3.00;;
16320;SDS011;8269;50.990;4.494;2023-05-29T10:49:19;7.72;;;2.80;;
16320;SDS011;8269;50.990;4.494;2023-05-29T10:51:46;8.95;;;3.03;;
16320;SDS011;8269;50.990;4.494;2023-05-29T10:54:13;8.38;;;2.70;;
16320;SDS011;8269;50.990;4.494;2023-05-29T10:56:39;11.30;;;2.88;;
16320;SDS011;8269;50.990;4.494;2023-05-29T10:59:07;7.53;;;2.50;;
16320;SDS011;8269;50.990;4.494;2023-05-29T11:01:34;8.57;;;2.70;;
16320;SDS011;8269;50.990;4.494;2023-05-29T11:06:45;6.70;;;2.30;;
16320;SDS011;8269;50.990;4.494;2023-05-29T11:15:04;11.52;;;3.20;;
16320;SDS011;8269;50.990;4.494;2023-05-29T11:20:04;11.13;;;3.03;;
16320;SDS011;8269;50.990;4.494;2023-05-29T11:22:40;8.25;;;2.80;;
16320;SDS011;8269;50.990;4.494;2023-05-29T11:25:13;10.00;;;2.97;;
16320;SDS011;8269;50.990;4.494;2023-05-29T11:27:41;5.90;;;2.33;;
16320;SDS011;8269;50.990;4.494;2023-05-29T11:30:10;11.00;;;2.70;;
16320;SDS011;8269;50.990;4.494;2023-05-29T11:32:38;8.75;;;2.53;;
16320;SDS011;8269;50.990;4.494;2023-05-29T11:35:08;7.57;;;2.17;;
16320;SDS011;8269;50.990;4.494;2023-05-29T11:37:38;9.18;;;2.78;;
16320;SDS011;8269;50.990;4.494;2023-05-29T11:40:07;9.82;;;2.72;;
16320;SDS011;8269;50.990;4.494;2023-05-29T11:42:35;9.75;;;3.00;;
16320;SDS011;8269;50.990;4.494;2023-05-29T11:45:11;9.93;;;3.40;;
16320;SDS011;8269;50.990;4.494;2023-05-29T11:50:37;8.80;;;3.08;;
16320;SDS011;8269;50.990;4.494;2023-05-29T11:53:05;9.30;;;2.83;;
16320;SDS011;8269;50.990;4.494;2023-05-29T11:55:32;8.13;;;2.50;;
16320;SDS011;8269;50.990;4.494;2023-05-29T11:57:59;8.48;;;2.75;;
16320;SDS011;8269;50.990;4.494;2023-05-29T12:00:27;8.25;;;2.88;;
16320;SDS011;8269;50.990;4.494;2023-05-29T12:02:59;9.70;;;2.97;;
16320;SDS011;8269;50.990;4.494;2023-05-29T12:05:29;10.63;;;2.88;;
16320;SDS011;8269;50.990;4.494;2023-05-29T12:07:56;8.70;;;2.85;;
16320;SDS011;8269;50.990;4.494;2023-05-29T12:10:25;11.18;;;3.17;;
16320;SDS011;8269;50.990;4.494;2023-05-29T12:15:18;10.48;;;3.30;;
16320;SDS011;8269;50.990;4.494;2023-05-29T12:17:45;12.18;;;3.17;;
16320;SDS011;8269;50.990;4.494;2023-05-29T12:20:11;11.27;;;3.05;;
16320;SDS011;8269;50.990;4.494;2023-05-29T12:22:38;8.30;;;2.95;;
16320;SDS011;8269;50.990;4.494;2023-05-29T12:27:36;7.13;;;2.95;;
16320;SDS011;8269;50.990;4.494;2023-05-29T12:30:07;7.18;;;2.85;;
16320;SDS011;8269;50.990;4.494;2023-05-29T12:32:37;9.43;;;2.72;;
16320;SDS011;8269;50.990;4.494;2023-05-29T12:37:41;9.13;;;2.90;;
16320;SDS011;8269;50.990;4.494;2023-05-29T12:40:14;7.85;;;3.08;;
16320;SDS011;8269;50.990;4.494;2023-05-29T12:42:41;10.63;;;3.28;;
16320;SDS011;8269;50.990;4.494;2023-05-29T12:45:07;10.15;;;2.72;;
16320;SDS011;8269;50.990;4.494;2023-05-29T12:47:34;9.20;;;2.63;;
16320;SDS011;8269;50.990;4.494;2023-05-29T12:50:06;7.65;;;2.60;;
16320;SDS011;8269;50.990;4.494;2023-05-29T12:52:41;10.90;;;3.13;;
16320;SDS011;8269;50.990;4.494;2023-05-29T12:55:07;11.32;;;3.17;;
16320;SDS011;8269;50.990;4.494;2023-05-29T12:57:33;7.07;;;2.63;;
16320;SDS011;8269;50.990;4.494;2023-05-29T12:59:59;10.65;;;3.00;;
16320;SDS011;8269;50.990;4.494;2023-05-29T13:02:25;8.27;;;3.03;;
16320;SDS011;8269;50.990;4.494;2023-05-29T13:04:51;9.10;;;2.90;;
16320;SDS011;8269;50.990;4.494;2023-05-29T13:07:17;7.95;;;3.10;;
16320;SDS011;8269;50.990;4.494;2023-05-29T13:09:43;7.75;;;2.83;;
16320;SDS011;8269;50.990;4.494;2023-05-29T13:12:09;7.90;;;2.67;;
16320;SDS011;8269;50.990;4.494;2023-05-29T13:14:35;8.07;;;3.00;;
16320;SDS011;8269;50.990;4.494;2023-05-29T13:17:01;10.07;;;3.63;;
16320;SDS011;8269;50.990;4.494;2023-05-29T13:19:27;6.85;;;2.72;;
16320;SDS011;8269;50.990;4.494;2023-05-29T13:21:53;7.78;;;3.13;;
16320;SDS011;8269;50.990;4.494;2023-05-29T13:24:19;8.20;;;2.80;;
16320;SDS011;8269;50.990;4.494;2023-05-29T13:26:45;6.43;;;2.40;;
16320;SDS011;8269;50.990;4.494;2023-05-29T13:29:11;8.18;;;3.45;;
16320;SDS011;8269;50.990;4.494;2023-05-29T13:31:37;10.80;;;3.17;;
16320;SDS011;8269;50.990;4.494;2023-05-29T13:34:04;9.93;;;3.25;;
16320;SDS011;8269;50.990;4.494;2023-05-29T13:36:29;6.15;;;2.90;;
16320;SDS011;8269;50.990;4.494;2023-05-29T13:38:56;10.10;;;2.88;;
16320;SDS011;8269;50.990;4.494;2023-05-29T13:41:21;7.20;;;3.15;;
16320;SDS011;8269;50.990;4.494;2023-05-29T13:43:48;8.05;;;3.00;;
16320;SDS011;8269;50.990;4.494;2023-05-29T13:46:14;11.13;;;3.20;;
16320;SDS011;8269;50.990;4.494;2023-05-29T13:48:40;8.10;;;3.45;;
16320;SDS011;8269;50.990;4.494;2023-05-29T13:51:05;9.02;;;3.10;;
16320;SDS011;8269;50.990;4.494;2023-05-29T13:53:31;10.02;;;3.53;;
16320;SDS011;8269;50.990;4.494;2023-05-29T13:55:58;9.80;;;3.20;;
16320;SDS011;8269;50.990;4.494;2023-05-29T13:58:24;9.10;;;3.60;;
16320;SDS011;8269;50.990;4.494;2023-05-29T14:00:51;7.40;;;2.97;;
16320;SDS011;8269;50.990;4.494;2023-05-29T14:03:17;10.32;;;3.00;;
16320;SDS011;8269;50.990;4.494;2023-05-29T14:05:47;11.35;;;3.47;;
16320;SDS011;8269;50.990;4.494;2023-05-29T14:08:13;9.15;;;3.10;;
16320;SDS011;8269;50.990;4.494;2023-05-29T14:10:39;5.82;;;3.10;;
16320;SDS011;8269;50.990;4.494;2023-05-29T14:13:05;7.70;;;3.30;;
16320;SDS011;8269;50.990;4.494;2023-05-29T14:15:31;8.32;;;3.03;;
16320;SDS011;8269;50.990;4.494;2023-05-29T14:17:57;9.77;;;2.92;;
16320;SDS011;8269;50.990;4.494;2023-05-29T14:20:23;10.10;;;2.92;;
16320;SDS011;8269;50.990;4.494;2023-05-29T14:22:49;9.15;;;3.10;;
16320;SDS011;8269;50.990;4.494;2023-05-29T14:25:14;10.57;;;3.28;;
16320;SDS011;8269;50.990;4.494;2023-05-29T14:27:40;9.00;;;2.90;;
16320;SDS011;8269;50.990;4.494;2023-05-29T14:30:06;9.40;;;3.20;;
16320;SDS011;8269;50.990;4.494;2023-05-29T14:32:32;9.80;;;2.70;;
16320;SDS011;8269;50.990;4.494;2023-05-29T14:34:58;9.40;;;2.88;;
16320;SDS011;8269;50.990;4.494;2023-05-29T14:37:24;9.00;;;2.90;;
16320;SDS011;8269;50.990;4.494;2023-05-29T14:39:50;9.13;;;3.10;;
16320;SDS011;8269;50.990;4.494;2023-05-29T14:42:16;8.45;;;3.38;;
16320;SDS011;8269;50.990;4.494;2023-05-29T14:44:42;8.75;;;2.92;;
16320;SDS011;8269;50.990;4.494;2023-05-29T14:47:08;11.00;;;3.03;;
16320;SDS011;8269;50.990;4.494;2023-05-29T14:49:35;9.05;;;3.00;;
16320;SDS011;8269;50.990;4.494;2023-05-29T14:52:02;9.23;;;2.72;;
16320;SDS011;8269;50.990;4.494;2023-05-29T14:54:29;6.78;;;2.90;;
16320;SDS011;8269;50.990;4.494;2023-05-29T14:56:55;8.80;;;3.20;;
16320;SDS011;8269;50.990;4.494;2023-05-29T14:59:22;13.93;;;2.90;;
16320;SDS011;8269;50.990;4.494;2023-05-29T15:01:48;10.23;;;2.80;;
16320;SDS011;8269;50.990;4.494;2023-05-29T15:04:15;9.73;;;3.25;;
16320;SDS011;8269;50.990;4.494;2023-05-29T15:06:41;11.02;;;2.83;;
16320;SDS011;8269;50.990;4.494;2023-05-29T15:09:06;7.55;;;2.90;;
16320;SDS011;8269;50.990;4.494;2023-05-29T15:11:32;7.03;;;2.83;;
16320;SDS011;8269;50.990;4.494;2023-05-29T15:13:58;6.15;;;2.70;;
16320;SDS011;8269;50.990;4.494;2023-05-29T15:16:26;9.77;;;2.90;;
16320;SDS011;8269;50.990;4.494;2023-05-29T15:18:52;9.20;;;3.03;;
16320;SDS011;8269;50.990;4.494;2023-05-29T15:21:18;8.18;;;2.78;;
16320;SDS011;8269;50.990;4.494;2023-05-29T15:23:44;9.85;;;2.90;;
16320;SDS011;8269;50.990;4.494;2023-05-29T15:26:10;6.20;;;2.47;;
16320;SDS011;8269;50.990;4.494;2023-05-29T15:28:36;9.20;;;2.90;;
16320;SDS011;8269;50.990;4.494;2023-05-29T15:31:01;7.75;;;2.65;;
16320;SDS011;8269;50.990;4.494;2023-05-29T15:33:27;8.88;;;2.70;;
16320;SDS011;8269;50.990;4.494;2023-05-29T15:35:53;9.80;;;2.88;;
16320;SDS011;8269;50.990;4.494;2023-05-29T15:38:19;9.80;;;2.53;;
16320;SDS011;8269;50.990;4.494;2023-05-29T15:40:44;8.95;;;2.95;;